ADDS METAR Data INFO
IDs: Format: Raw Decoded Include TAF

Data at: 1241 UTC 25 Jul 2017

KELA 251235Z AUTO 00000KT 7SM CLR 25/25 A3008 RMK AO2 T02500247
KELA 251215Z AUTO 00000KT 7SM CLR 25/25 A3008 RMK AO2 T02460245
KELA 251155Z AUTO 00000KT 5SM BR CLR 25/25 A3007 RMK AO2 T02450245 10260 20245
KELA 251135Z AUTO 00000KT 7SM CLR 25/25 A3006 RMK AO2 T02460245
KELA 251115Z AUTO 15003KT 7SM CLR 25/25 A3006 RMK AO2 T02460245
KELA 251055Z AUTO 15003KT 7SM CLR 25/25 A3005 RMK AO2 T02480246
KELA 251035Z AUTO 15003KT 7SM CLR 25/25 A3005 RMK AO2 T02500246
KELA 251015Z AUTO 14003KT 7SM CLR 25/25 A3005 RMK AO2 T02510247
KELA 250955Z AUTO 15004KT 7SM CLR 25/25 A3005 RMK AO2 T02520247
KELA 250935Z AUTO 15003KT 7SM CLR 25/25 A3004 RMK AO2 T02520247
KELA 250915Z AUTO 16003KT 10SM CLR 26/25 A3004 RMK AO2 T02550250
KELA 250855Z AUTO 15004KT 10SM CLR 26/25 A3004 RMK AO2 T02560250
KELA 250835Z AUTO 15004KT 10SM CLR 26/25 A3004 RMK AO2 T02570250
KELA 250815Z AUTO 15003KT 10SM CLR 26/25 A3004 RMK AO2 T02570249
KELA 250755Z AUTO 15003KT 10SM CLR 26/25 A3004 RMK AO2 T02570248
KELA 250735Z AUTO 16004KT 10SM CLR 26/25 A3004 RMK AO2 T02570250
KELA 250715Z AUTO 14004KT 10SM CLR 26/25 A3004 RMK AO2 T02570250
KELA 250655Z AUTO 14003KT 10SM CLR 26/25 A3004 RMK AO2 T02570250
KELA 250635Z AUTO 15003KT 10SM CLR 26/25 A3004 RMK AO2 T02600250
KELA 250615Z AUTO 15004KT 10SM CLR 26/25 A3003 RMK AO2 T02600250
KELA 250555Z AUTO 15003KT 10SM CLR 26/25 A3003 RMK AO2 T02600250 10332 20260 403700256
KELA 250535Z AUTO 15003KT 10SM CLR 26/25 A3003 RMK AO2 T02610250
KELA 250515Z AUTO 15003KT 10SM CLR 26/25 A3003 RMK AO2 T02620250
KELA 250455Z AUTO 16004KT 10SM CLR 27/25 A3002 RMK AO2 T02650250
KELA 250435Z AUTO 15003KT 10SM CLR 26/25 A3002 RMK AO2 T02620248
KELA 250415Z AUTO 15003KT 10SM CLR 26/25 A3001 RMK AO2 T02620247
KELA 250355Z AUTO 14003KT 10SM CLR 26/25 A3001 RMK AO2 T02640246
KELA 250335Z AUTO 16003KT 10SM CLR 27/25 A3001 RMK AO2 T02670245
KELA 250315Z AUTO 17005KT 10SM CLR 27/24 A3000 RMK AO2 T02660243
KELA 250255Z AUTO 17005KT 10SM CLR 27/24 A2999 RMK AO2 T02680240
KELA 250235Z AUTO 18006KT 10SM CLR 27/24 A2997 RMK AO2 T02730238
KELA 250215Z AUTO 17007KT 10SM CLR 28/24 A2997 RMK AO2 T02750236
KELA 250155Z AUTO 18006KT 10SM CLR 28/24 A2997 RMK AO2 T02820236
KELA 250135Z AUTO 18005KT 10SM CLR 29/23 A2997 RMK AO2 T02870232
KELA 250115Z AUTO 18008KT 10SM CLR 30/23 A2997 RMK AO2 T02980225
KELA 250055Z AUTO 19010KT 10SM CLR 31/22 A2997 RMK AO2 T03050217
KELA 250035Z AUTO 18011KT 10SM CLR 31/22 A2996 RMK AO2 T03130221
KELA 250015Z AUTO 18013G17KT 10SM CLR 32/22 A2996 RMK AO2 T03210219
KELA 242355Z AUTO 18009KT 10SM CLR 33/20 A2996 RMK AO2 T03330195 10370 20333
KELA 242335Z AUTO 18011KT 10SM CLR 34/20 A2996 RMK AO2 T03390199
KELA 242315Z AUTO 19011G18KT 10SM CLR 34/21 A2995 RMK AO2 T03440206
KELA 242255Z AUTO 16012G17KT 10SM CLR 35/21 A2994 RMK AO2 T03520205
KELA 242235Z AUTO 19011G15KT 10SM CLR 36/19 A2994 RMK AO2 T03600190
KELA 242215Z AUTO 20010G16KT 10SM CLR 37/19 A2995 RMK AO2 T03650192
KELA 242155Z AUTO 20009KT 10SM CLR 36/19 A2994 RMK AO2 T03640185
KELA 242135Z AUTO 20010KT 10SM CLR 37/17 A2994 RMK AO2 T03660165
KELA 242115Z AUTO 21011G17KT 10SM CLR 37/18 A2994 RMK AO2 T03680179
KELA 242055Z AUTO 21010KT 10SM CLR 37/18 A2994 RMK AO2 T03660175
KELA 242035Z AUTO 19012G16KT 10SM CLR 37/19 A2994 RMK AO2 T03660193
KELA 242015Z AUTO 20012G17KT 10SM CLR 36/19 A2995 RMK AO2 T03590187
KELA 241955Z AUTO 19012G20KT 10SM CLR 36/18 A2996 RMK AO2 T03640183
KELA 241935Z AUTO 18013G19KT 10SM CLR 36/20 A2997 RMK AO2 T03600204
KELA 241915Z AUTO 18013G17KT 10SM CLR 36/21 A2997 RMK AO2 T03570208
KELA 241855Z AUTO 21008G18KT 10SM SCT050 36/22 A2998 RMK AO2 T03580217
KELA 241835Z AUTO 22009KT 180V240 10SM CLR 36/22 A2999 RMK AO2 LTG DSNT N T03570223
KELA 241815Z AUTO 19008KT 10SM CLR 35/23 A2999 RMK AO2 T03470229
KELA 241755Z AUTO 19007KT 7SM CLR 34/23 A3000 RMK AO2 T03440227 10344 20256
KELA 241735Z AUTO 23006KT 7SM CLR 34/23 A3000 RMK AO2 T03370225
KELA 241715Z AUTO 25007KT 7SM CLR 33/23 A3001 RMK AO2 T03310225
KELA 241655Z AUTO 23010KT 10SM CLR 33/23 A3001 RMK AO2 T03290230
KELA 241635Z AUTO 23009G17KT 10SM CLR 32/23 A3001 RMK AO2 T03200232
KELA 241615Z AUTO 23011KT 7SM CLR 32/24 A3001 RMK AO2 T03160238
KELA 241555Z AUTO 23010KT 7SM CLR 31/24 A3001 RMK AO2 T03120242
KELA 241535Z AUTO 22010G14KT 7SM SCT021 SCT026 31/25 A3000 RMK AO2 T03140245
KELA 241515Z AUTO 22010G14KT 7SM SCT021 31/25 A3001 RMK AO2 T03100252
KELA 241455Z AUTO 23007KT 7SM SCT019 30/26 A3001 RMK AO2 T03000257
KELA 241435Z AUTO 22006KT 7SM SCT014 29/26 A3001 RMK AO2 T02900259
KELA 241415Z AUTO 24005KT 7SM SCT012 SCT019 SCT027 28/26 A3000 RMK AO2 T02840260
KELA 241355Z AUTO 22005KT 7SM SCT021 BKN027 BKN031 28/26 A2999 RMK AO2 T02820260
KELA 241335Z AUTO 22005KT 7SM BKN021 OVC027 28/26 A3000 RMK AO2 T02750260
KELA 241315Z AUTO 00000KT 7SM BKN021 BKN026 27/26 A2999 RMK AO2 T02700260
KELA 241255Z AUTO 00000KT 5SM BR SCT021 SCT028 26/26 A2998 RMK AO2 T02630259
KELA 241235Z AUTO 00000KT 5SM BR CLR 26/26 A2997 RMK AO2 T02600257
KELA 241215Z AUTO 00000KT 5SM BR CLR 26/26 A2996 RMK AO2 LTG DSNT NE T02560255
KELA 241155Z AUTO 21003KT 5SM BR CLR 26/26 A2996 RMK AO2 T02570255 10269 20257
KELA 241135Z AUTO 22004KT 7SM CLR 26/26 A2995 RMK AO2 T02600256
KELA 241115Z AUTO 22004KT 7SM CLR 26/26 A2994 RMK AO2 T02600257
KELA 241055Z AUTO 21004KT 7SM SCT018 26/26 A2994 RMK AO2 LTG DSNT NE T02590256
KELA 241035Z AUTO 24003KT 7SM SCT018 26/26 A2994 RMK AO2 T02580255
KELA 241015Z AUTO 22003KT 7SM CLR 26/26 A2994 RMK AO2 T02600257
KELA 240955Z AUTO 21004KT 7SM CLR 26/26 A2993 RMK AO2 T02600257
KELA 240935Z AUTO 20003KT 7SM CLR 26/26 A2994 RMK AO2 T02600256
KELA 240915Z AUTO 00000KT 7SM CLR 26/26 A2994 RMK AO2 T02620256
KELA 240855Z AUTO 20004KT 7SM CLR 26/26 A2994 RMK AO2 T02610256
KELA 240835Z AUTO 20006KT 7SM CLR 26/26 A2994 RMK AO2 T02620256
KELA 240815Z AUTO 19004KT 7SM SCT018 26/26 A2994 RMK AO2 T02630257
KELA 240755Z AUTO 19004KT 7SM CLR 27/26 A2993 RMK AO2 T02650257
KELA 240735Z AUTO 21005KT 7SM CLR 27/26 A2993 RMK AO2 T02650257
KELA 240715Z AUTO 21004KT 7SM CLR 27/26 A2994 RMK AO2 T02650257
KELA 240655Z AUTO 20004KT 7SM CLR 27/26 A2994 RMK AO2 T02680256
KELA 240635Z AUTO 20006KT 10SM CLR 27/26 A2994 RMK AO2 T02680256
KELA 240615Z AUTO 20007KT 10SM CLR 27/26 A2993 RMK AO2 T02680255
KELA 240555Z AUTO 19005KT 10SM CLR 27/25 A2994 RMK AO2 T02680253 10333 20267 403690248
KELA 240535Z AUTO 20007KT 10SM CLR 27/25 A2994 RMK AO2 T02680253
KELA 240515Z AUTO 19006KT 10SM CLR 27/25 A2993 RMK AO2 T02680253
KELA 240455Z AUTO 17007KT 10SM CLR 27/25 A2992 RMK AO2 T02700252
KELA 240435Z AUTO 19004KT 10SM CLR 27/25 A2992 RMK AO2 T02710252
KELA 240415Z AUTO 18007KT 10SM CLR 27/25 A2992 RMK AO2 T02720251
KELA 240355Z AUTO 18006KT 10SM CLR 28/25 A2991 RMK AO2 T02750251
KELA 240335Z AUTO 19009KT 10SM CLR 28/25 A2992 RMK AO2 T02750251
KELA 240315Z AUTO 18008KT 10SM CLR 28/25 A2992 RMK AO2 T02780250
KELA 240255Z AUTO 19006KT 10SM CLR 28/25 A2992 RMK AO2 T02760250
KELA 240235Z AUTO 00000KT 10SM CLR 28/25 A2992 RMK AO2 T02770248
KELA 240215Z AUTO 17006KT 10SM CLR 28/25 A2990 RMK AO2 T02830247
KELA 240155Z AUTO 17007KT 10SM CLR 29/24 A2989 RMK AO2 T02900244
KELA 240135Z AUTO 17008KT 10SM CLR 30/24 A2989 RMK AO2 T02960241
KELA 240115Z AUTO 18009KT 10SM CLR 30/24 A2989 RMK AO2 T03030239
KELA 240055Z AUTO 19010G17KT 10SM CLR 31/24 A2988 RMK AO2 T03100235